sensor_id;sensor_type;location;lat;lon;timestamp;P1;durP1;ratioP1;P2;durP2;ratioP2
10863;SDS011;5485;37.558;126.950;2023-06-26T00:00:06;5.32;;;3.70;;
10863;SDS011;5485;37.558;126.950;2023-06-26T00:02:33;3.50;;;3.20;;
10863;SDS011;5485;37.558;126.950;2023-06-26T00:05:00;4.22;;;3.58;;
10863;SDS011;5485;37.558;126.950;2023-06-26T00:07:28;6.18;;;3.28;;
10863;SDS011;5485;37.558;126.950;2023-06-26T00:09:56;3.65;;;3.10;;
10863;SDS011;5485;37.558;126.950;2023-06-26T00:12:24;6.03;;;3.67;;
10863;SDS011;5485;37.558;126.950;2023-06-26T00:14:51;3.95;;;3.35;;
10863;SDS011;5485;37.558;126.950;2023-06-26T00:17:18;3.97;;;3.67;;
10863;SDS011;5485;37.558;126.950;2023-06-26T00:19:44;4.57;;;4.18;;
10863;SDS011;5485;37.558;126.950;2023-06-26T00:22:11;5.07;;;3.92;;
10863;SDS011;5485;37.558;126.950;2023-06-26T00:24:38;5.55;;;4.20;;
10863;SDS011;5485;37.558;126.950;2023-06-26T00:27:05;5.00;;;4.47;;
10863;SDS011;5485;37.558;126.950;2023-06-26T00:29:32;7.18;;;4.50;;
10863;SDS011;5485;37.558;126.950;2023-06-26T00:31:59;5.07;;;4.05;;
10863;SDS011;5485;37.558;126.950;2023-06-26T00:34:28;7.55;;;6.85;;
10863;SDS011;5485;37.558;126.950;2023-06-26T00:36:55;6.55;;;4.85;;
10863;SDS011;5485;37.558;126.950;2023-06-26T00:39:22;6.30;;;5.00;;
10863;SDS011;5485;37.558;126.950;2023-06-26T00:41:51;4.55;;;4.15;;
10863;SDS011;5485;37.558;126.950;2023-06-26T00:44:21;5.10;;;4.70;;
10863;SDS011;5485;37.558;126.950;2023-06-26T00:46:48;5.97;;;5.03;;
10863;SDS011;5485;37.558;126.950;2023-06-26T00:49:18;5.93;;;4.38;;
10863;SDS011;5485;37.558;126.950;2023-06-26T00:51:45;5.07;;;4.68;;
10863;SDS011;5485;37.558;126.950;2023-06-26T00:54:12;6.00;;;5.50;;
10863;SDS011;5485;37.558;126.950;2023-06-26T00:56:45;7.13;;;5.78;;
10863;SDS011;5485;37.558;126.950;2023-06-26T00:59:13;7.10;;;6.45;;
10863;SDS011;5485;37.558;126.950;2023-06-26T01:01:41;7.70;;;6.72;;
10863;SDS011;5485;37.558;126.950;2023-06-26T01:04:08;8.02;;;7.32;;
10863;SDS011;5485;37.558;126.950;2023-06-26T01:06:43;8.50;;;7.80;;
10863;SDS011;5485;37.558;126.950;2023-06-26T01:09:17;9.35;;;8.30;;
10863;SDS011;5485;37.558;126.950;2023-06-26T01:11:45;9.35;;;8.55;;
10863;SDS011;5485;37.558;126.950;2023-06-26T01:14:12;10.60;;;9.60;;
10863;SDS011;5485;37.558;126.950;2023-06-26T01:16:40;10.10;;;9.20;;
10863;SDS011;5485;37.558;126.950;2023-06-26T01:19:19;12.35;;;11.15;;
10863;SDS011;5485;37.558;126.950;2023-06-26T01:21:56;11.95;;;10.82;;
10863;SDS011;5485;37.558;126.950;2023-06-26T01:24:31;12.93;;;11.70;;
10863;SDS011;5485;37.558;126.950;2023-06-26T01:27:02;15.00;;;13.43;;
10863;SDS011;5485;37.558;126.950;2023-06-26T01:29:30;12.95;;;11.75;;
10863;SDS011;5485;37.558;126.950;2023-06-26T01:31:58;13.55;;;12.32;;
10863;SDS011;5485;37.558;126.950;2023-06-26T01:34:26;15.13;;;13.10;;
10863;SDS011;5485;37.558;126.950;2023-06-26T01:36:54;13.85;;;12.75;;
10863;SDS011;5485;37.558;126.950;2023-06-26T01:39:20;16.02;;;13.00;;
10863;SDS011;5485;37.558;126.950;2023-06-26T01:41:47;14.63;;;13.10;;
10863;SDS011;5485;37.558;126.950;2023-06-26T01:52:26;13.60;;;12.43;;
10863;SDS011;5485;37.558;126.950;2023-06-26T01:55:14;15.93;;;14.43;;
10863;SDS011;5485;37.558;126.950;2023-06-26T01:58:02;14.05;;;12.82;;
10863;SDS011;5485;37.558;126.950;2023-06-26T02:00:29;14.70;;;12.98;;
10863;SDS011;5485;37.558;126.950;2023-06-26T02:02:57;16.92;;;13.23;;
10863;SDS011;5485;37.558;126.950;2023-06-26T02:05:24;14.13;;;12.82;;
10863;SDS011;5485;37.558;126.950;2023-06-26T02:07:51;15.77;;;14.45;;
10863;SDS011;5485;37.558;126.950;2023-06-26T02:10:17;16.25;;;14.55;;
10863;SDS011;5485;37.558;126.950;2023-06-26T02:12:47;17.42;;;15.68;;
10863;SDS011;5485;37.558;126.950;2023-06-26T02:15:14;15.48;;;14.18;;
10863;SDS011;5485;37.558;126.950;2023-06-26T02:17:41;14.80;;;13.52;;
10863;SDS011;5485;37.558;126.950;2023-06-26T02:20:08;15.60;;;13.80;;
10863;SDS011;5485;37.558;126.950;2023-06-26T02:22:36;13.55;;;12.35;;
10863;SDS011;5485;37.558;126.950;2023-06-26T02:25:02;14.77;;;13.27;;
10863;SDS011;5485;37.558;126.950;2023-06-26T02:27:30;13.95;;;12.65;;
10863;SDS011;5485;37.558;126.950;2023-06-26T02:29:57;14.27;;;12.88;;
10863;SDS011;5485;37.558;126.950;2023-06-26T02:32:23;13.75;;;12.52;;
10863;SDS011;5485;37.558;126.950;2023-06-26T02:34:50;14.35;;;12.63;;
10863;SDS011;5485;37.558;126.950;2023-06-26T02:37:17;15.15;;;13.38;;
10863;SDS011;5485;37.558;126.950;2023-06-26T02:39:45;14.32;;;13.02;;
10863;SDS011;5485;37.558;126.950;2023-06-26T02:42:12;14.70;;;13.20;;
10863;SDS011;5485;37.558;126.950;2023-06-26T02:44:39;14.45;;;12.93;;
10863;SDS011;5485;37.558;126.950;2023-06-26T02:47:06;14.32;;;12.88;;
10863;SDS011;5485;37.558;126.950;2023-06-26T02:49:33;14.85;;;12.73;;
10863;SDS011;5485;37.558;126.950;2023-06-26T02:52:00;12.93;;;11.68;;
10863;SDS011;5485;37.558;126.950;2023-06-26T02:54:27;14.02;;;12.57;;
10863;SDS011;5485;37.558;126.950;2023-06-26T02:56:56;13.32;;;11.98;;
10863;SDS011;5485;37.558;126.950;2023-06-26T02:59:24;13.93;;;12.60;;
10863;SDS011;5485;37.558;126.950;2023-06-26T03:01:51;14.15;;;12.73;;
10863;SDS011;5485;37.558;126.950;2023-06-26T03:04:18;14.82;;;13.02;;
10863;SDS011;5485;37.558;126.950;2023-06-26T03:06:47;15.55;;;13.85;;
10863;SDS011;5485;37.558;126.950;2023-06-26T03:09:13;15.20;;;13.63;;
10863;SDS011;5485;37.558;126.950;2023-06-26T03:11:41;15.00;;;13.60;;
10863;SDS011;5485;37.558;126.950;2023-06-26T03:14:09;18.15;;;14.55;;
10863;SDS011;5485;37.558;126.950;2023-06-26T03:16:36;14.55;;;13.05;;
10863;SDS011;5485;37.558;126.950;2023-06-26T03:19:03;15.20;;;13.80;;
10863;SDS011;5485;37.558;126.950;2023-06-26T03:21:32;17.80;;;13.80;;
10863;SDS011;5485;37.558;126.950;2023-06-26T03:23:59;16.77;;;13.82;;
10863;SDS011;5485;37.558;126.950;2023-06-26T03:26:26;15.27;;;14.02;;
10863;SDS011;5485;37.558;126.950;2023-06-26T03:28:56;16.45;;;14.77;;
10863;SDS011;5485;37.558;126.950;2023-06-26T03:31:23;15.52;;;13.88;;
10863;SDS011;5485;37.558;126.950;2023-06-26T03:33:50;14.57;;;13.27;;
10863;SDS011;5485;37.558;126.950;2023-06-26T03:36:16;14.68;;;13.07;;
10863;SDS011;5485;37.558;126.950;2023-06-26T03:38:43;13.98;;;12.68;;
10863;SDS011;5485;37.558;126.950;2023-06-26T03:41:10;15.27;;;13.68;;
10863;SDS011;5485;37.558;126.950;2023-06-26T03:43:37;17.55;;;13.75;;
10863;SDS011;5485;37.558;126.950;2023-06-26T03:46:04;14.57;;;13.07;;
10863;SDS011;5485;37.558;126.950;2023-06-26T03:48:31;15.65;;;13.18;;
10863;SDS011;5485;37.558;126.950;2023-06-26T03:50:57;14.77;;;13.27;;
10863;SDS011;5485;37.558;126.950;2023-06-26T03:53:26;14.60;;;13.15;;
10863;SDS011;5485;37.558;126.950;2023-06-26T03:55:54;15.60;;;13.55;;
10863;SDS011;5485;37.558;126.950;2023-06-26T03:58:21;14.32;;;12.82;;
10863;SDS011;5485;37.558;126.950;2023-06-26T04:00:47;15.35;;;13.75;;
10863;SDS011;5485;37.558;126.950;2023-06-26T04:03:14;16.75;;;14.90;;
10863;SDS011;5485;37.558;126.950;2023-06-26T04:05:41;19.13;;;14.88;;
10863;SDS011;5485;37.558;126.950;2023-06-26T04:08:08;15.07;;;13.57;;
10863;SDS011;5485;37.558;126.950;2023-06-26T04:10:35;15.85;;;14.15;;
10863;SDS011;5485;37.558;126.950;2023-06-26T04:13:02;15.65;;;14.15;;
10863;SDS011;5485;37.558;126.950;2023-06-26T04:15:29;17.90;;;15.43;;
10863;SDS011;5485;37.558;126.950;2023-06-26T04:17:56;16.08;;;14.63;;
10863;SDS011;5485;37.558;126.950;2023-06-26T04:20:22;16.10;;;14.52;;
10863;SDS011;5485;37.558;126.950;2023-06-26T04:22:49;14.50;;;13.05;;
10863;SDS011;5485;37.558;126.950;2023-06-26T04:25:16;15.73;;;14.35;;
10863;SDS011;5485;37.558;126.950;2023-06-26T04:27:43;17.30;;;15.50;;
10863;SDS011;5485;37.558;126.950;2023-06-26T04:30:10;17.52;;;15.05;;
10863;SDS011;5485;37.558;126.950;2023-06-26T04:32:37;17.30;;;15.70;;
10863;SDS011;5485;37.558;126.950;2023-06-26T04:35:06;16.90;;;15.40;;
10863;SDS011;5485;37.558;126.950;2023-06-26T04:37:33;17.15;;;15.45;;
10863;SDS011;5485;37.558;126.950;2023-06-26T04:40:00;17.98;;;16.17;;
10863;SDS011;5485;37.558;126.950;2023-06-26T04:42:26;18.75;;;17.05;;
10863;SDS011;5485;37.558;126.950;2023-06-26T04:44:53;19.23;;;17.50;;
10863;SDS011;5485;37.558;126.950;2023-06-26T04:47:20;19.25;;;17.50;;
10863;SDS011;5485;37.558;126.950;2023-06-26T04:49:47;20.63;;;18.40;;
10863;SDS011;5485;37.558;126.950;2023-06-26T04:52:14;20.83;;;18.77;;
10863;SDS011;5485;37.558;126.950;2023-06-26T04:54:41;21.00;;;18.95;;
10863;SDS011;5485;37.558;126.950;2023-06-26T04:57:08;20.92;;;19.05;;
10863;SDS011;5485;37.558;126.950;2023-06-26T04:59:35;20.92;;;18.92;;
10863;SDS011;5485;37.558;126.950;2023-06-26T05:02:01;23.60;;;21.55;;
10863;SDS011;5485;37.558;126.950;2023-06-26T05:04:30;25.20;;;22.80;;
10863;SDS011;5485;37.558;126.950;2023-06-26T05:06:57;25.98;;;23.50;;
10863;SDS011;5485;37.558;126.950;2023-06-26T05:09:23;26.75;;;24.20;;
10863;SDS011;5485;37.558;126.950;2023-06-26T05:11:50;28.15;;;25.35;;
10863;SDS011;5485;37.558;126.950;2023-06-26T05:14:17;24.08;;;21.85;;
10863;SDS011;5485;37.558;126.950;2023-06-26T05:16:44;31.63;;;27.42;;
10863;SDS011;5485;37.558;126.950;2023-06-26T05:19:11;29.75;;;26.98;;
10863;SDS011;5485;37.558;126.950;2023-06-26T05:21:38;29.20;;;26.50;;
10863;SDS011;5485;37.558;126.950;2023-06-26T05:24:05;28.13;;;25.42;;
10863;SDS011;5485;37.558;126.950;2023-06-26T05:26:33;29.75;;;26.88;;
10863;SDS011;5485;37.558;126.950;2023-06-26T05:29:00;28.77;;;25.95;;
10863;SDS011;5485;37.558;126.950;2023-06-26T05:31:27;27.90;;;24.98;;
10863;SDS011;5485;37.558;126.950;2023-06-26T05:33:55;25.70;;;23.33;;
10863;SDS011;5485;37.558;126.950;2023-06-26T05:36:29;27.10;;;24.45;;
10863;SDS011;5485;37.558;126.950;2023-06-26T05:38:58;27.75;;;25.10;;
10863;SDS011;5485;37.558;126.950;2023-06-26T05:41:25;30.17;;;27.20;;
10863;SDS011;5485;37.558;126.950;2023-06-26T05:43:57;29.85;;;26.98;;
10863;SDS011;5485;37.558;126.950;2023-06-26T05:46:23;31.80;;;28.60;;
10863;SDS011;5485;37.558;126.950;2023-06-26T05:48:50;32.13;;;28.92;;
10863;SDS011;5485;37.558;126.950;2023-06-26T05:51:17;30.60;;;27.58;;
10863;SDS011;5485;37.558;126.950;2023-06-26T05:53:44;32.08;;;28.83;;
10863;SDS011;5485;37.558;126.950;2023-06-26T05:56:12;32.08;;;28.67;;
10863;SDS011;5485;37.558;126.950;2023-06-26T05:58:39;31.33;;;27.95;;
10863;SDS011;5485;37.558;126.950;2023-06-26T06:01:06;31.25;;;27.85;;
10863;SDS011;5485;37.558;126.950;2023-06-26T06:03:33;29.27;;;26.55;;
10863;SDS011;5485;37.558;126.950;2023-06-26T06:06:00;31.23;;;28.17;;
10863;SDS011;5485;37.558;126.950;2023-06-26T06:08:26;29.63;;;26.83;;
10863;SDS011;5485;37.558;126.950;2023-06-26T06:10:53;28.67;;;25.77;;
10863;SDS011;5485;37.558;126.950;2023-06-26T06:13:20;31.52;;;28.35;;
10863;SDS011;5485;37.558;126.950;2023-06-26T06:15:47;28.58;;;25.70;;
10863;SDS011;5485;37.558;126.950;2023-06-26T06:18:14;28.98;;;26.20;;
10863;SDS011;5485;37.558;126.950;2023-06-26T06:20:41;31.60;;;28.40;;
10863;SDS011;5485;37.558;126.950;2023-06-26T06:23:08;29.95;;;26.90;;
10863;SDS011;5485;37.558;126.950;2023-06-26T06:25:35;31.27;;;27.40;;
10863;SDS011;5485;37.558;126.950;2023-06-26T06:28:01;30.10;;;27.10;;
10863;SDS011;5485;37.558;126.950;2023-06-26T06:30:30;30.45;;;27.45;;
10863;SDS011;5485;37.558;126.950;2023-06-26T06:32:57;28.98;;;26.23;;
10863;SDS011;5485;37.558;126.950;2023-06-26T06:35:24;27.10;;;24.45;;
10863;SDS011;5485;37.558;126.950;2023-06-26T06:37:51;25.85;;;23.45;;
10863;SDS011;5485;37.558;126.950;2023-06-26T06:40:18;27.65;;;25.10;;
10863;SDS011;5485;37.558;126.950;2023-06-26T06:42:44;28.10;;;25.20;;
10863;SDS011;5485;37.558;126.950;2023-06-26T06:45:11;28.10;;;25.40;;
10863;SDS011;5485;37.558;126.950;2023-06-26T06:47:42;27.85;;;25.38;;
10863;SDS011;5485;37.558;126.950;2023-06-26T06:50:09;23.63;;;21.33;;
10863;SDS011;5485;37.558;126.950;2023-06-26T06:52:39;23.17;;;20.75;;
10863;SDS011;5485;37.558;126.950;2023-06-26T06:55:07;22.20;;;20.17;;
10863;SDS011;5485;37.558;126.950;2023-06-26T06:57:38;22.40;;;20.42;;
10863;SDS011;5485;37.558;126.950;2023-06-26T07:00:06;22.05;;;19.70;;
10863;SDS011;5485;37.558;126.950;2023-06-26T07:02:35;22.30;;;20.17;;
10863;SDS011;5485;37.558;126.950;2023-06-26T07:05:03;20.80;;;18.98;;
10863;SDS011;5485;37.558;126.950;2023-06-26T07:07:31;20.98;;;18.85;;
10863;SDS011;5485;37.558;126.950;2023-06-26T07:10:00;20.42;;;18.70;;
10863;SDS011;5485;37.558;126.950;2023-06-26T07:12:30;22.15;;;19.83;;
10863;SDS011;5485;37.558;126.950;2023-06-26T07:14:57;21.60;;;19.52;;
10863;SDS011;5485;37.558;126.950;2023-06-26T07:17:24;21.38;;;19.35;;
10863;SDS011;5485;37.558;126.950;2023-06-26T07:19:51;20.65;;;18.67;;
10863;SDS011;5485;37.558;126.950;2023-06-26T07:22:18;21.27;;;19.38;;
10863;SDS011;5485;37.558;126.950;2023-06-26T07:24:55;20.98;;;19.08;;
10863;SDS011;5485;37.558;126.950;2023-06-26T07:27:22;24.33;;;21.92;;
10863;SDS011;5485;37.558;126.950;2023-06-26T07:29:51;25.02;;;22.63;;
10863;SDS011;5485;37.558;126.950;2023-06-26T07:32:19;25.60;;;23.13;;
10863;SDS011;5485;37.558;126.950;2023-06-26T07:34:47;23.92;;;21.52;;
10863;SDS011;5485;37.558;126.950;2023-06-26T07:37:17;23.55;;;21.60;;
10863;SDS011;5485;37.558;126.950;2023-06-26T07:39:44;26.23;;;23.90;;
10863;SDS011;5485;37.558;126.950;2023-06-26T07:42:10;24.10;;;21.83;;
10863;SDS011;5485;37.558;126.950;2023-06-26T07:44:37;22.55;;;20.58;;
10863;SDS011;5485;37.558;126.950;2023-06-26T07:47:04;23.67;;;21.55;;
10863;SDS011;5485;37.558;126.950;2023-06-26T07:49:33;23.60;;;21.50;;
10863;SDS011;5485;37.558;126.950;2023-06-26T07:52:12;23.23;;;21.08;;
10863;SDS011;5485;37.558;126.950;2023-06-26T07:54:40;22.90;;;20.70;;
10863;SDS011;5485;37.558;126.950;2023-06-26T07:57:08;22.80;;;20.95;;
10863;SDS011;5485;37.558;126.950;2023-06-26T07:59:39;22.35;;;20.55;;
10863;SDS011;5485;37.558;126.950;2023-06-26T08:02:06;22.02;;;20.20;;
10863;SDS011;5485;37.558;126.950;2023-06-26T08:04:33;19.60;;;17.83;;
10863;SDS011;5485;37.558;126.950;2023-06-26T08:07:00;21.60;;;19.33;;
10863;SDS011;5485;37.558;126.950;2023-06-26T08:09:29;18.42;;;16.73;;
10863;SDS011;5485;37.558;126.950;2023-06-26T08:11:56;16.55;;;15.10;;
10863;SDS011;5485;37.558;126.950;2023-06-26T08:14:24;15.90;;;14.48;;
10863;SDS011;5485;37.558;126.950;2023-06-26T08:16:51;13.15;;;11.95;;
10863;SDS011;5485;37.558;126.950;2023-06-26T08:19:20;11.30;;;10.18;;
10863;SDS011;5485;37.558;126.950;2023-06-26T08:21:47;10.32;;;9.43;;
10863;SDS011;5485;37.558;126.950;2023-06-26T08:24:14;8.38;;;7.70;;
10863;SDS011;5485;37.558;126.950;2023-06-26T08:26:45;10.10;;;8.48;;
10863;SDS011;5485;37.558;126.950;2023-06-26T08:29:12;7.13;;;6.63;;
10863;SDS011;5485;37.558;126.950;2023-06-26T08:31:39;6.60;;;6.03;;
10863;SDS011;5485;37.558;126.950;2023-06-26T08:34:07;6.25;;;5.75;;
10863;SDS011;5485;37.558;126.950;2023-06-26T08:36:34;6.63;;;6.03;;
10863;SDS011;5485;37.558;126.950;2023-06-26T08:39:01;6.15;;;5.65;;
10863;SDS011;5485;37.558;126.950;2023-06-26T08:41:30;6.65;;;6.00;;
10863;SDS011;5485;37.558;126.950;2023-06-26T08:43:57;5.47;;;5.03;;
10863;SDS011;5485;37.558;126.950;2023-06-26T08:46:24;5.80;;;5.18;;
10863;SDS011;5485;37.558;126.950;2023-06-26T08:48:54;8.57;;;7.75;;
10863;SDS011;5485;37.558;126.950;2023-06-26T08:51:27;5.25;;;4.75;;
10863;SDS011;5485;37.558;126.950;2023-06-26T08:53:59;5.53;;;5.07;;
10863;SDS011;5485;37.558;126.950;2023-06-26T08:56:36;5.50;;;4.28;;
10863;SDS011;5485;37.558;126.950;2023-06-26T08:59:07;6.70;;;5.95;;
10863;SDS011;5485;37.558;126.950;2023-06-26T09:01:39;5.00;;;4.55;;
10863;SDS011;5485;37.558;126.950;2023-06-26T09:04:07;5.97;;;5.47;;
10863;SDS011;5485;37.558;126.950;2023-06-26T09:06:34;5.07;;;4.57;;
10863;SDS011;5485;37.558;126.950;2023-06-26T09:09:01;5.18;;;4.78;;
10863;SDS011;5485;37.558;126.950;2023-06-26T09:11:29;5.32;;;4.93;;
10863;SDS011;5485;37.558;126.950;2023-06-26T09:13:56;4.60;;;4.20;;
10863;SDS011;5485;37.558;126.950;2023-06-26T09:16:26;4.95;;;4.45;;
10863;SDS011;5485;37.558;126.950;2023-06-26T09:18:55;5.40;;;4.90;;
10863;SDS011;5485;37.558;126.950;2023-06-26T09:21:25;5.28;;;4.68;;
10863;SDS011;5485;37.558;126.950;2023-06-26T09:23:52;4.55;;;4.15;;
10863;SDS011;5485;37.558;126.950;2023-06-26T09:26:20;14.43;;;12.25;;
10863;SDS011;5485;37.558;126.950;2023-06-26T09:28:48;5.43;;;4.47;;
10863;SDS011;5485;37.558;126.950;2023-06-26T09:31:15;8.65;;;5.20;;
10863;SDS011;5485;37.558;126.950;2023-06-26T09:33:46;9.95;;;6.93;;
10863;SDS011;5485;37.558;126.950;2023-06-26T09:36:20;5.78;;;5.28;;
10863;SDS011;5485;37.558;126.950;2023-06-26T09:38:50;5.00;;;4.60;;
10863;SDS011;5485;37.558;126.950;2023-06-26T09:41:17;5.68;;;5.28;;
10863;SDS011;5485;37.558;126.950;2023-06-26T09:43:47;5.55;;;5.07;;
10863;SDS011;5485;37.558;126.950;2023-06-26T09:46:15;6.55;;;5.68;;
10863;SDS011;5485;37.558;126.950;2023-06-26T09:48:43;8.15;;;5.55;;
10863;SDS011;5485;37.558;126.950;2023-06-26T09:51:13;6.13;;;5.63;;
10863;SDS011;5485;37.558;126.950;2023-06-26T09:53:42;7.00;;;6.40;;
10863;SDS011;5485;37.558;126.950;2023-06-26T09:56:15;6.90;;;6.30;;
10863;SDS011;5485;37.558;126.950;2023-06-26T09:58:43;7.43;;;6.65;;
10863;SDS011;5485;37.558;126.950;2023-06-26T10:01:10;9.20;;;7.22;;
10863;SDS011;5485;37.558;126.950;2023-06-26T10:03:37;8.10;;;7.35;;
10863;SDS011;5485;37.558;126.950;2023-06-26T10:06:04;9.80;;;8.80;;
10863;SDS011;5485;37.558;126.950;2023-06-26T10:08:33;10.43;;;9.43;;
10863;SDS011;5485;37.558;126.950;2023-06-26T10:11:03;10.75;;;9.68;;
10863;SDS011;5485;37.558;126.950;2023-06-26T10:13:38;12.05;;;10.85;;
10863;SDS011;5485;37.558;126.950;2023-06-26T10:16:08;11.60;;;10.45;;
10863;SDS011;5485;37.558;126.950;2023-06-26T10:18:36;13.50;;;12.10;;
10863;SDS011;5485;37.558;126.950;2023-06-26T10:21:07;12.93;;;11.73;;
10863;SDS011;5485;37.558;126.950;2023-06-26T10:23:36;13.77;;;12.38;;
10863;SDS011;5485;37.558;126.950;2023-06-26T10:26:05;15.07;;;13.63;;
10863;SDS011;5485;37.558;126.950;2023-06-26T10:28:37;16.20;;;14.45;;
10863;SDS011;5485;37.558;126.950;2023-06-26T10:31:06;16.80;;;13.95;;
10863;SDS011;5485;37.558;126.950;2023-06-26T10:33:35;15.05;;;13.45;;
10863;SDS011;5485;37.558;126.950;2023-06-26T10:39:03;16.73;;;14.93;;
10863;SDS011;5485;37.558;126.950;2023-06-26T10:41:37;18.88;;;16.67;;
10863;SDS011;5485;37.558;126.950;2023-06-26T10:44:11;20.58;;;17.88;;
10863;SDS011;5485;37.558;126.950;2023-06-26T10:46:49;23.27;;;17.67;;
10863;SDS011;5485;37.558;126.950;2023-06-26T10:49:20;20.88;;;17.85;;
10863;SDS011;5485;37.558;126.950;2023-06-26T10:51:51;20.65;;;17.40;;
10863;SDS011;5485;37.558;126.950;2023-06-26T10:54:20;19.38;;;16.02;;
10863;SDS011;5485;37.558;126.950;2023-06-26T10:56:48;18.08;;;16.13;;
10863;SDS011;5485;37.558;126.950;2023-06-26T10:59:21;19.23;;;16.48;;
10863;SDS011;5485;37.558;126.950;2023-06-26T11:02:02;19.08;;;17.10;;
10863;SDS011;5485;37.558;126.950;2023-06-26T11:04:40;19.15;;;17.15;;
10863;SDS011;5485;37.558;126.950;2023-06-26T11:07:15;17.30;;;15.60;;
10863;SDS011;5485;37.558;126.950;2023-06-26T11:12:43;18.30;;;16.08;;
10863;SDS011;5485;37.558;126.950;2023-06-26T11:15:14;18.70;;;16.73;;
10863;SDS011;5485;37.558;126.950;2023-06-26T11:17:42;15.75;;;14.18;;
10863;SDS011;5485;37.558;126.950;2023-06-26T11:20:13;16.75;;;15.07;;
10863;SDS011;5485;37.558;126.950;2023-06-26T11:22:41;19.00;;;14.52;;
10863;SDS011;5485;37.558;126.950;2023-06-26T11:25:09;16.15;;;14.45;;
10863;SDS011;5485;37.558;126.950;2023-06-26T11:27:42;15.50;;;13.75;;
10863;SDS011;5485;37.558;126.950;2023-06-26T11:30:11;17.38;;;14.95;;
10863;SDS011;5485;37.558;126.950;2023-06-26T11:32:48;16.00;;;14.18;;
10863;SDS011;5485;37.558;126.950;2023-06-26T11:35:25;18.33;;;14.77;;
10863;SDS011;5485;37.558;126.950;2023-06-26T11:37:58;17.73;;;15.93;;
10863;SDS011;5485;37.558;126.950;2023-06-26T11:40:29;16.17;;;14.77;;
10863;SDS011;5485;37.558;126.950;2023-06-26T11:42:58;17.90;;;16.00;;
10863;SDS011;5485;37.558;126.950;2023-06-26T11:45:27;18.35;;;15.45;;
10863;SDS011;5485;37.558;126.950;2023-06-26T11:47:58;19.30;;;15.85;;
10863;SDS011;5485;37.558;126.950;2023-06-26T11:50:26;17.73;;;15.82;;
10863;SDS011;5485;37.558;126.950;2023-06-26T11:52:56;18.10;;;16.13;;
10863;SDS011;5485;37.558;126.950;2023-06-26T11:55:24;18.63;;;16.63;;
10863;SDS011;5485;37.558;126.950;2023-06-26T11:57:55;19.38;;;17.45;;
10863;SDS011;5485;37.558;126.950;2023-06-26T12:00:22;16.70;;;15.07;;
10863;SDS011;5485;37.558;126.950;2023-06-26T12:02:49;17.25;;;15.45;;
10863;SDS011;5485;37.558;126.950;2023-06-26T12:05:17;16.75;;;15.05;;
10863;SDS011;5485;37.558;126.950;2023-06-26T12:07:47;18.38;;;16.50;;
10863;SDS011;5485;37.558;126.950;2023-06-26T12:10:16;15.38;;;13.77;;
10863;SDS011;5485;37.558;126.950;2023-06-26T12:12:45;16.00;;;14.40;;
10863;SDS011;5485;37.558;126.950;2023-06-26T12:15:13;15.43;;;14.10;;
10863;SDS011;5485;37.558;126.950;2023-06-26T12:17:41;13.98;;;12.52;;
10863;SDS011;5485;37.558;126.950;2023-06-26T12:20:18;15.40;;;13.75;;
10863;SDS011;5485;37.558;126.950;2023-06-26T12:22:51;12.93;;;11.70;;
10863;SDS011;5485;37.558;126.950;2023-06-26T12:25:22;15.35;;;11.93;;
10863;SDS011;5485;37.558;126.950;2023-06-26T12:27:50;13.10;;;11.98;;
10863;SDS011;5485;37.558;126.950;2023-06-26T12:30:17;11.80;;;10.75;;
10863;SDS011;5485;37.558;126.950;2023-06-26T12:32:45;12.98;;;11.77;;
10863;SDS011;5485;37.558;126.950;2023-06-26T12:35:12;11.98;;;10.52;;
10863;SDS011;5485;37.558;126.950;2023-06-26T12:37:39;12.02;;;10.77;;
10863;SDS011;5485;37.558;126.950;2023-06-26T12:40:18;11.38;;;10.32;;
10863;SDS011;5485;37.558;126.950;2023-06-26T12:42:49;12.40;;;11.10;;
10863;SDS011;5485;37.558;126.950;2023-06-26T12:45:16;13.25;;;11.95;;
10863;SDS011;5485;37.558;126.950;2023-06-26T12:47:43;12.82;;;11.52;;
10863;SDS011;5485;37.558;126.950;2023-06-26T12:50:11;11.75;;;10.68;;
10863;SDS011;5485;37.558;126.950;2023-06-26T12:52:38;12.02;;;10.93;;
10863;SDS011;5485;37.558;126.950;2023-06-26T12:55:05;10.73;;;9.30;;
10863;SDS011;5485;37.558;126.950;2023-06-26T12:57:33;9.82;;;8.77;;
10863;SDS011;5485;37.558;126.950;2023-06-26T12:59:59;8.95;;;8.13;;
10863;SDS011;5485;37.558;126.950;2023-06-26T13:02:26;10.00;;;8.38;;
10863;SDS011;5485;37.558;126.950;2023-06-26T13:04:53;13.30;;;8.70;;
10863;SDS011;5485;37.558;126.950;2023-06-26T13:07:20;8.07;;;7.28;;
10863;SDS011;5485;37.558;126.950;2023-06-26T13:09:50;7.50;;;7.00;;
10863;SDS011;5485;37.558;126.950;2023-06-26T13:12:17;8.85;;;7.97;;
10863;SDS011;5485;37.558;126.950;2023-06-26T13:14:43;9.82;;;7.15;;
10863;SDS011;5485;37.558;126.950;2023-06-26T13:17:11;9.02;;;8.18;;
10863;SDS011;5485;37.558;126.950;2023-06-26T13:19:38;8.95;;;7.35;;
10863;SDS011;5485;37.558;126.950;2023-06-26T13:22:05;8.20;;;7.55;;
10863;SDS011;5485;37.558;126.950;2023-06-26T13:24:35;6.97;;;6.40;;
10863;SDS011;5485;37.558;126.950;2023-06-26T13:27:02;7.10;;;6.50;;
10863;SDS011;5485;37.558;126.950;2023-06-26T13:29:29;7.38;;;6.68;;
10863;SDS011;5485;37.558;126.950;2023-06-26T13:31:57;7.78;;;7.07;;
10863;SDS011;5485;37.558;126.950;2023-06-26T13:34:24;6.10;;;5.60;;
10863;SDS011;5485;37.558;126.950;2023-06-26T13:36:52;6.15;;;5.55;;
10863;SDS011;5485;37.558;126.950;2023-06-26T13:39:20;7.05;;;6.35;;
10863;SDS011;5485;37.558;126.950;2023-06-26T13:41:46;6.38;;;5.82;;
10863;SDS011;5485;37.558;126.950;2023-06-26T13:44:13;7.22;;;6.63;;
10863;SDS011;5485;37.558;126.950;2023-06-26T13:46:40;6.47;;;5.88;;
10863;SDS011;5485;37.558;126.950;2023-06-26T13:49:07;5.90;;;5.40;;
10863;SDS011;5485;37.558;126.950;2023-06-26T13:51:34;6.57;;;5.95;;
10863;SDS011;5485;37.558;126.950;2023-06-26T13:54:03;5.93;;;5.30;;
10863;SDS011;5485;37.558;126.950;2023-06-26T13:56:30;6.10;;;5.60;;
10863;SDS011;5485;37.558;126.950;2023-06-26T13:58:57;6.82;;;5.68;;
10863;SDS011;5485;37.558;126.950;2023-06-26T14:01:23;6.22;;;5.45;;
10863;SDS011;5485;37.558;126.950;2023-06-26T14:03:50;7.72;;;7.13;;
10863;SDS011;5485;37.558;126.950;2023-06-26T14:06:17;9.88;;;8.70;;
10863;SDS011;5485;37.558;126.950;2023-06-26T14:08:44;11.20;;;10.15;;
10863;SDS011;5485;37.558;126.950;2023-06-26T14:11:11;11.60;;;10.48;;
10863;SDS011;5485;37.558;126.950;2023-06-26T14:13:38;12.65;;;11.43;;
10863;SDS011;5485;37.558;126.950;2023-06-26T14:16:05;13.27;;;11.90;;
10863;SDS011;5485;37.558;126.950;2023-06-26T14:18:32;13.38;;;12.18;;
10863;SDS011;5485;37.558;126.950;2023-06-26T14:21:00;14.38;;;12.90;;
10863;SDS011;5485;37.558;126.950;2023-06-26T14:23:27;17.05;;;14.35;;
10863;SDS011;5485;37.558;126.950;2023-06-26T14:25:57;16.25;;;14.55;;
10863;SDS011;5485;37.558;126.950;2023-06-26T14:28:23;17.10;;;15.48;;
10863;SDS011;5485;37.558;126.950;2023-06-26T14:30:50;19.52;;;16.38;;
10863;SDS011;5485;37.558;126.950;2023-06-26T14:33:20;18.80;;;16.83;;
10863;SDS011;5485;37.558;126.950;2023-06-26T14:35:47;19.23;;;17.33;;